createdAt,value
2017-01-20T00:00:40.065Z,48.34
2017-01-20T00:01:20.654Z,48.34
2017-01-20T00:02:01.030Z,48.97
2017-01-20T00:02:41.544Z,48.41
2017-01-20T00:03:22.107Z,48.22
2017-01-20T00:04:02.690Z,48.34
2017-01-20T00:04:43.140Z,49.1
2017-01-20T00:05:23.557Z,48.34
2017-01-20T00:06:04.144Z,48.44
2017-01-20T00:06:44.568Z,48.25
2017-01-20T00:07:25.031Z,48.34
2017-01-20T00:08:05.532Z,48.25
2017-01-20T00:08:46.044Z,47.96
2017-01-20T00:09:26.582Z,47.96
2017-01-20T00:10:07.046Z,48.06
2017-01-20T00:10:47.572Z,48.34
2017-01-20T00:11:28.002Z,48.15
2017-01-20T00:12:08.439Z,48.25
2017-01-20T00:12:49.027Z,48.34
2017-01-20T00:13:29.777Z,48.15
2017-01-20T00:14:10.229Z,48.34
2017-01-20T00:14:50.783Z,48.25
2017-01-20T00:15:31.167Z,48.34
2017-01-20T00:16:11.664Z,48.06
2017-01-20T00:16:52.146Z,48.15
2017-01-20T00:17:32.650Z,48.91
2017-01-20T00:18:13.298Z,48.25
2017-01-20T00:18:53.645Z,48.72
2017-01-20T00:19:34.194Z,48.91
2017-01-20T00:20:14.600Z,48.82
2017-01-20T00:20:55.101Z,49.19
2017-01-20T00:23:10.504Z,49.01
2017-01-20T00:23:50.654Z,48.41
2017-01-20T00:24:31.175Z,48.44
2017-01-20T00:25:11.661Z,48.25
2017-01-20T00:25:52.106Z,48.41
2017-01-20T00:26:32.642Z,48.6
2017-01-20T00:27:13.130Z,48.63
2017-01-20T00:27:53.572Z,49.01
2017-01-20T00:28:34.075Z,48.91
2017-01-20T00:29:14.570Z,48.44
2017-01-20T00:29:55.027Z,49.19
2017-01-20T00:30:35.510Z,48.34
2017-01-20T00:31:15.993Z,48.63
2017-01-20T00:31:56.462Z,48.34
2017-01-20T00:32:36.991Z,48.53
2017-01-20T00:33:17.437Z,48.53
2017-01-20T00:33:57.895Z,48.25
2017-01-20T00:34:38.461Z,48.06
2017-01-20T00:35:18.881Z,48.22
2017-01-20T00:35:59.380Z,48.34
2017-01-20T00:36:39.870Z,48.06
2017-01-20T00:37:20.479Z,48.44
2017-01-20T00:38:00.938Z,48.06
2017-01-20T00:38:41.556Z,48.63
2017-01-20T00:39:21.988Z,48.25
2017-01-20T00:40:02.529Z,48.34
2017-01-20T00:40:42.968Z,48.34
2017-01-20T00:41:24.415Z,48.25
2017-01-20T00:42:05.037Z,48.06
2017-01-20T00:42:45.541Z,48.06
2017-01-20T00:43:26.212Z,48.06
2017-01-20T00:44:06.693Z,48.06
2017-01-20T00:44:47.217Z,48.15
2017-01-20T00:45:27.607Z,47.87
2017-01-20T00:46:08.209Z,48.25
2017-01-20T00:46:48.574Z,48.44
2017-01-20T00:47:29.238Z,48.06
2017-01-20T00:48:09.625Z,47.77
2017-01-20T00:48:50.210Z,47.87
2017-01-20T00:49:30.676Z,47.96
2017-01-20T00:50:11.218Z,47.96
2017-01-20T00:50:51.651Z,48.15
2017-01-20T00:51:32.659Z,47.96
2017-01-20T00:52:13.400Z,48.06
2017-01-20T00:52:53.845Z,48.06
2017-01-20T00:53:34.665Z,48.06
2017-01-20T00:54:15.180Z,47.87
2017-01-20T00:54:55.794Z,47.68
2017-01-20T00:55:36.284Z,48.15
2017-01-20T00:56:16.617Z,48.15
2017-01-20T00:56:57.103Z,47.68
2017-01-20T00:57:37.570Z,47.75
2017-01-20T00:58:18.041Z,47.85
2017-01-20T00:58:58.547Z,48.13
2017-01-20T00:59:39.041Z,47.96
2017-01-20T01:00:19.445Z,47.75
2017-01-20T01:00:59.947Z,48.03
2017-01-20T01:01:40.480Z,47.87
2017-01-20T01:02:20.947Z,48.25
2017-01-20T01:03:01.379Z,48.06
2017-01-20T01:03:41.897Z,48.25
2017-01-20T01:04:22.334Z,48.06
2017-01-20T01:05:02.857Z,47.58
2017-01-20T01:05:43.336Z,48.03
2017-01-20T01:06:23.803Z,48.06
2017-01-20T01:07:04.308Z,48.03
2017-01-20T01:07:44.744Z,48.03
2017-01-20T01:08:25.250Z,48.03
2017-01-20T01:09:05.770Z,47.85
2017-01-20T01:09:46.270Z,48.32
2017-01-20T01:10:26.708Z,47.96
2017-01-20T01:11:07.203Z,48.34
2017-01-20T01:11:47.713Z,47.96
2017-01-20T01:12:28.191Z,48.06
2017-01-20T01:13:08.749Z,47.56
2017-01-20T01:13:49.225Z,47.94
2017-01-20T01:14:29.688Z,47.87
2017-01-20T01:15:10.224Z,48.06
2017-01-20T01:15:50.738Z,47.96
2017-01-20T01:16:31.190Z,47.96
2017-01-20T01:17:11.644Z,47.77
2017-01-20T01:17:52.155Z,47.58
2017-01-20T01:18:32.648Z,47.58
2017-01-20T01:19:13.133Z,47.49
2017-01-20T01:19:53.641Z,47.68
2017-01-20T01:20:34.098Z,47.49
2017-01-20T01:21:14.607Z,47.58
2017-01-20T01:21:55.119Z,47.58
2017-01-20T01:22:35.588Z,47.77
2017-01-20T01:23:16.103Z,47.77
2017-01-20T01:23:56.578Z,47.49
2017-01-20T01:24:37.008Z,47.77
2017-01-20T01:25:17.558Z,47.37
2017-01-20T01:25:57.983Z,47.68
2017-01-20T01:26:38.495Z,47.37
2017-01-20T01:27:18.949Z,47.77
2017-01-20T01:27:59.442Z,47.58
2017-01-20T01:28:40.064Z,47.68
2017-01-20T01:29:20.506Z,47.77
2017-01-20T01:30:00.983Z,47.68
2017-01-20T01:30:41.451Z,47.87
2017-01-20T01:31:21.980Z,47.3
2017-01-20T01:32:02.459Z,47.3
2017-01-20T01:32:42.959Z,47.58
2017-01-20T01:33:23.478Z,46.92
2017-01-20T01:34:03.959Z,47.2
2017-01-20T01:34:44.432Z,47.49
2017-01-20T01:35:24.871Z,47.39
2017-01-20T01:36:05.411Z,47.3
2017-01-20T01:36:45.911Z,47.39
2017-01-20T01:37:26.466Z,47.49
2017-01-20T01:38:07.032Z,47.49
2017-01-20T01:38:47.470Z,46.83
2017-01-20T01:39:27.976Z,47.58
2017-01-20T01:40:08.446Z,47.02
2017-01-20T01:40:49.021Z,47.58
2017-01-20T01:41:29.488Z,47.39
2017-01-20T01:42:09.917Z,47.3
2017-01-20T01:42:50.454Z,47.2
2017-01-20T01:43:31.004Z,47.3
2017-01-20T01:44:11.410Z,47.77
2017-01-20T01:44:51.967Z,47.49
2017-01-20T01:45:32.360Z,47.3
2017-01-20T01:46:12.864Z,47.3
2017-01-20T01:46:53.555Z,47.87
2017-01-20T01:47:34.005Z,47.68
2017-01-20T01:48:14.419Z,47.87
2017-01-20T01:48:54.961Z,47.77
2017-01-20T01:49:35.451Z,47.49
2017-01-20T01:50:15.912Z,47.49
2017-01-20T01:50:56.428Z,47.77
2017-01-20T01:51:36.896Z,47.68
2017-01-20T01:52:17.371Z,47.77
2017-01-20T01:52:57.907Z,47.68
2017-01-20T01:53:38.395Z,47.77
2017-01-20T01:54:18.958Z,47.68
2017-01-20T01:54:59.499Z,47.77
2017-01-20T01:55:40.040Z,47.68
2017-01-20T01:56:20.509Z,47.49
2017-01-20T01:57:01.004Z,47.58
2017-01-20T01:57:41.508Z,47.68
2017-01-20T01:58:21.939Z,47.68
2017-01-20T01:59:02.458Z,47.77
2017-01-20T01:59:42.928Z,47.96
2017-01-20T02:00:23.387Z,47.87
2017-01-20T02:01:03.902Z,48.03
2017-01-20T02:01:44.321Z,47.94
2017-01-20T02:02:24.803Z,48.06
2017-01-20T02:03:05.340Z,47.58
2017-01-20T02:03:45.823Z,47.75
2017-01-20T02:04:26.232Z,47.68
2017-01-20T02:05:06.755Z,47.39
2017-01-20T02:05:47.255Z,47.77
2017-01-20T02:06:27.694Z,47.77
2017-01-20T02:07:08.174Z,47.58
2017-01-20T02:07:48.688Z,47.49
2017-01-20T02:08:29.131Z,47.58
2017-01-20T02:09:09.691Z,47.58
2017-01-20T02:09:50.114Z,47.87
2017-01-20T02:10:30.658Z,47.94
2017-01-20T02:11:11.126Z,47.56
2017-01-20T02:11:51.636Z,47.94
2017-01-20T02:12:32.122Z,47.96
2017-01-20T02:13:12.607Z,47.94
2017-01-20T02:13:53.076Z,48.44
2017-01-20T02:14:33.534Z,48.13
2017-01-20T02:15:14.213Z,48.03
2017-01-20T02:15:54.484Z,48.06
2017-01-20T02:16:35.018Z,48.06
2017-01-20T02:17:15.479Z,47.87
2017-01-20T02:17:55.939Z,47.58
2017-01-20T02:18:36.425Z,47.66
2017-01-20T02:19:16.934Z,48.03
2017-01-20T02:19:57.472Z,48.03
2017-01-20T02:20:38.034Z,48.03
2017-01-20T02:21:18.483Z,47.94
2017-01-20T02:21:58.946Z,47.94
2017-01-20T02:22:39.667Z,48.15
2017-01-20T02:23:20.311Z,47.58
2017-01-20T02:24:00.742Z,47.68
2017-01-20T02:24:41.233Z,47.68
2017-01-20T02:25:21.719Z,47.49
2017-01-20T02:26:02.192Z,47.56
2017-01-20T02:26:42.709Z,47.68
2017-01-20T02:27:23.148Z,47.49
2017-01-20T02:28:03.678Z,47.68
2017-01-20T02:28:44.157Z,47.87
2017-01-20T02:29:24.593Z,47.77
2017-01-20T02:30:05.116Z,47.39
2017-01-20T02:30:45.598Z,47.3
2017-01-20T02:31:26.074Z,47.39
2017-01-20T02:32:06.556Z,47.58
2017-01-20T02:32:47.024Z,47.39
2017-01-20T02:33:27.553Z,47.39
2017-01-20T02:34:08.032Z,47.58
2017-01-20T02:34:48.462Z,47.68
2017-01-20T02:35:28.993Z,47.68
2017-01-20T02:36:09.441Z,47.49
2017-01-20T02:36:49.939Z,47.56
2017-01-20T02:37:30.392Z,47.68
2017-01-20T02:38:10.854Z,47.56
2017-01-20T02:38:51.305Z,47.75
2017-01-20T02:39:31.803Z,47.68
2017-01-20T02:40:12.308Z,47.58
2017-01-20T02:40:52.764Z,47.49
2017-01-20T02:41:33.271Z,47.39
2017-01-20T02:42:13.804Z,47.58
2017-01-20T02:42:54.291Z,47.77
2017-01-20T02:43:34.858Z,47.75
2017-01-20T02:44:15.415Z,47.68
2017-01-20T02:44:55.857Z,47.77
2017-01-20T02:45:36.370Z,47.85
2017-01-20T02:46:16.844Z,47.77
2017-01-20T02:46:57.354Z,47.56
2017-01-20T02:47:37.794Z,47.56
2017-01-20T02:48:18.244Z,47.66
2017-01-20T02:48:58.810Z,47.47
2017-01-20T02:49:39.201Z,47.47
2017-01-20T02:50:19.718Z,47.49
2017-01-20T02:51:00.249Z,47.87
2017-01-20T02:51:40.693Z,47.75
2017-01-20T02:52:21.166Z,47.75
2017-01-20T02:53:01.643Z,47.47
2017-01-20T02:53:42.164Z,47.56
2017-01-20T02:54:22.705Z,47.56
2017-01-20T02:55:03.160Z,47.66
2017-01-20T02:55:43.634Z,48.03
2017-01-20T02:56:24.144Z,47.75
2017-01-20T02:57:04.638Z,47.56
2017-01-20T02:57:45.147Z,47.94
2017-01-20T02:58:25.668Z,47.85
2017-01-20T02:59:06.075Z,47.94
2017-01-20T02:59:46.573Z,47.94
2017-01-20T03:00:27.161Z,48.13
2017-01-20T03:01:07.624Z,48.03
2017-01-20T03:01:48.139Z,48.13
2017-01-20T03:02:28.579Z,48.22
2017-01-20T03:03:09.123Z,48.13
2017-01-20T03:03:49.632Z,48.22
2017-01-20T03:04:30.102Z,48.22
2017-01-20T03:05:10.558Z,48.32
2017-01-20T03:05:51.070Z,48.32
2017-01-20T03:06:31.695Z,48.22
2017-01-20T03:07:12.040Z,48.69
2017-01-20T03:07:52.515Z,48.22
2017-01-20T03:08:32.971Z,47.75
2017-01-20T03:09:13.502Z,48.03
2017-01-20T03:09:54.072Z,48.13
2017-01-20T03:10:34.523Z,47.77
2017-01-20T03:11:15.019Z,47.56
2017-01-20T03:11:55.528Z,47.75
2017-01-20T03:12:35.965Z,47.66
2017-01-20T03:13:16.469Z,47.75
2017-01-20T03:13:56.966Z,47.66
2017-01-20T03:14:37.439Z,47.94
2017-01-20T03:15:17.891Z,48.13
2017-01-20T03:15:58.403Z,48.03
2017-01-20T03:16:38.906Z,47.94
2017-01-20T03:17:19.382Z,47.94
2017-01-20T03:17:59.833Z,48.03
2017-01-20T03:18:40.352Z,48.22
2017-01-20T03:19:20.874Z,48.03
2017-01-20T03:20:01.350Z,48.22
2017-01-20T03:20:41.808Z,47.56
2017-01-20T03:21:22.301Z,47.85
2017-01-20T03:22:02.819Z,47.47
2017-01-20T03:22:43.283Z,47.66
2017-01-20T03:23:23.765Z,47.75
2017-01-20T03:24:04.278Z,47.66
2017-01-20T03:24:44.737Z,47.56
2017-01-20T03:25:25.232Z,47.56
2017-01-20T03:26:05.699Z,47.56
2017-01-20T03:26:46.300Z,47.75
2017-01-20T03:27:26.664Z,47.56
2017-01-20T03:28:07.152Z,47.66
2017-01-20T03:28:47.648Z,47.66
2017-01-20T03:29:28.223Z,47.66
2017-01-20T03:30:08.645Z,47.66
2017-01-20T03:30:49.109Z,47.66
2017-01-20T03:31:29.673Z,47.56
2017-01-20T03:32:10.157Z,47.85
2017-01-20T03:32:50.623Z,48.03
2017-01-20T03:33:31.211Z,47.85
2017-01-20T03:34:11.602Z,47.94
2017-01-20T03:34:52.135Z,47.94
2017-01-20T03:35:32.619Z,47.94
2017-01-20T03:36:13.069Z,47.85
2017-01-20T03:36:53.610Z,48.03
2017-01-20T03:37:34.026Z,47.85
2017-01-20T03:38:14.584Z,47.85
2017-01-20T03:38:55.051Z,47.75
2017-01-20T03:39:35.623Z,47.75
2017-01-20T03:40:16.201Z,47.85
2017-01-20T03:40:56.676Z,47.85
2017-01-20T03:41:37.197Z,47.85
2017-01-20T03:42:17.671Z,47.56
2017-01-20T03:42:58.140Z,47.47
2017-01-20T03:43:38.577Z,47.56
2017-01-20T03:44:19.092Z,47.66
2017-01-20T03:44:59.577Z,47.75
2017-01-20T03:45:40.035Z,47.94
2017-01-20T03:46:20.703Z,47.85
2017-01-20T03:47:01.249Z,47.94
2017-01-20T03:47:41.743Z,48.13
2017-01-20T03:48:22.182Z,48.22
2017-01-20T03:49:02.673Z,47.94
2017-01-20T03:49:43.180Z,48.03
2017-01-20T03:50:23.619Z,48.03
2017-01-20T03:51:04.073Z,47.94
2017-01-20T03:51:44.592Z,47.94
2017-01-20T03:52:25.081Z,48.03
2017-01-20T03:53:05.507Z,48.03
2017-01-20T03:53:46.028Z,47.85
2017-01-20T03:54:26.512Z,48.03
2017-01-20T03:55:06.957Z,48.03
2017-01-20T03:55:47.457Z,48.03
2017-01-20T03:56:27.976Z,48.03
2017-01-20T03:57:08.485Z,48.03
2017-01-20T03:57:48.958Z,47.66
2017-01-20T03:58:29.384Z,47.66
2017-01-20T03:59:09.917Z,47.75
2017-01-20T03:59:50.334Z,47.75
2017-01-20T04:00:30.833Z,48.03
2017-01-20T04:01:11.337Z,48.13
2017-01-20T04:01:51.824Z,48.03
2017-01-20T04:02:32.352Z,47.85
2017-01-20T04:03:12.769Z,48.03
2017-01-20T04:03:53.258Z,47.85
2017-01-20T04:04:33.768Z,47.66
2017-01-20T04:05:14.243Z,47.47
2017-01-20T04:05:54.776Z,47.56
2017-01-20T04:06:35.214Z,47.66
2017-01-20T04:07:15.687Z,47.75
2017-01-20T04:07:56.117Z,47.75
2017-01-20T04:08:36.630Z,47.47
2017-01-20T04:09:17.121Z,47.47
2017-01-20T04:09:57.597Z,47.66
2017-01-20T04:10:38.051Z,47.47
2017-01-20T04:11:18.533Z,47.47
2017-01-20T04:11:59.009Z,47.56
2017-01-20T04:12:39.523Z,47.85
2017-01-20T04:13:19.988Z,47.85
2017-01-20T04:14:00.450Z,47.56
2017-01-20T04:14:41.086Z,47.75
2017-01-20T04:15:21.542Z,47.75
2017-01-20T04:16:02.102Z,47.66
2017-01-20T04:16:42.550Z,47.75
2017-01-20T04:17:23.020Z,47.75
2017-01-20T04:18:03.535Z,47.47
2017-01-20T04:18:44.106Z,47.75
2017-01-20T04:19:24.509Z,47.66
2017-01-20T04:20:05.033Z,47.56
2017-01-20T04:20:45.552Z,47.75
2017-01-20T04:21:26.013Z,47.75
2017-01-20T04:22:06.603Z,47.28
2017-01-20T04:22:47.054Z,47.28
2017-01-20T04:23:27.575Z,47.28
2017-01-20T04:24:08.051Z,47.37
2017-01-20T04:24:48.545Z,47.37
2017-01-20T04:25:29.003Z,47.37
2017-01-20T04:26:09.462Z,47.28
2017-01-20T04:26:49.993Z,47.37
2017-01-20T04:27:30.496Z,47.47
2017-01-20T04:28:10.951Z,46.9
2017-01-20T04:28:51.466Z,46.9
2017-01-20T04:29:31.926Z,46.8
2017-01-20T04:30:12.426Z,46.71
2017-01-20T04:30:53.031Z,46.71
2017-01-20T04:31:33.541Z,46.8
2017-01-20T04:32:14.048Z,46.99
2017-01-20T04:32:54.511Z,46.71
2017-01-20T04:33:35.037Z,46.71
2017-01-20T04:34:15.465Z,46.61
2017-01-20T04:34:55.909Z,46.71
2017-01-20T04:35:36.512Z,46.61
2017-01-20T04:36:16.886Z,46.71
2017-01-20T04:36:58.301Z,46.52
2017-01-20T04:37:38.791Z,46.8
2017-01-20T04:38:19.296Z,46.8
2017-01-20T04:38:59.778Z,46.9
2017-01-20T04:39:40.235Z,47.28
2017-01-20T04:40:20.803Z,47.37
2017-01-20T04:41:01.385Z,47.28
2017-01-20T04:41:41.849Z,47.75
2017-01-20T04:42:22.337Z,47.37
2017-01-20T04:43:02.902Z,47.56
2017-01-20T04:43:43.397Z,46.9
2017-01-20T04:44:23.859Z,46.61
2017-01-20T04:45:04.397Z,46.9
2017-01-20T04:45:44.867Z,46.71
2017-01-20T04:46:25.403Z,46.8
2017-01-20T04:47:05.843Z,46.9
2017-01-20T04:47:46.381Z,46.71
2017-01-20T04:48:26.868Z,47.18
2017-01-20T04:49:07.359Z,46.99
2017-01-20T04:49:47.846Z,47.66
2017-01-20T04:50:28.296Z,47.56
2017-01-20T04:51:08.770Z,47.66
2017-01-20T04:51:49.301Z,47.56
2017-01-20T04:52:29.746Z,47.37
2017-01-20T04:53:10.297Z,47.75
2017-01-20T04:53:50.746Z,47.66
2017-01-20T04:54:31.410Z,47.66
2017-01-20T04:55:11.932Z,47.75
2017-01-20T04:55:52.453Z,47.37
2017-01-20T04:56:32.963Z,47.37
2017-01-20T04:57:13.471Z,47.37
2017-01-20T04:57:53.955Z,47.37
2017-01-20T04:58:34.424Z,47.37
2017-01-20T04:59:14.952Z,47.28
2017-01-20T04:59:55.427Z,47.18
2017-01-20T05:00:35.899Z,47.47
2017-01-20T05:01:16.409Z,47.18
2017-01-20T05:01:56.925Z,46.9
2017-01-20T05:02:37.387Z,46.8
2017-01-20T05:03:17.974Z,46.71
2017-01-20T05:03:58.501Z,46.52
2017-01-20T05:04:38.964Z,46.8
2017-01-20T05:05:19.476Z,46.9
2017-01-20T05:06:00.025Z,46.71
2017-01-20T05:06:40.485Z,46.42
2017-01-20T05:07:20.987Z,46.61
2017-01-20T05:08:01.501Z,46.33
2017-01-20T05:09:51.224Z,46.61
2017-01-20T05:10:31.542Z,46.9
2017-01-20T05:11:12.137Z,46.71
2017-01-20T05:11:52.591Z,46.33
2017-01-20T05:12:33.113Z,46.71
2017-01-20T05:13:13.581Z,46.14
2017-01-20T05:13:54.044Z,46.61
2017-01-20T05:14:34.673Z,45.95
2017-01-20T05:15:15.161Z,46.23
2017-01-20T05:15:55.658Z,45.95
2017-01-20T05:16:36.157Z,46.42
2017-01-20T05:17:16.634Z,45.86
2017-01-20T05:17:57.151Z,46.33
2017-01-20T05:18:37.602Z,46.04
2017-01-20T05:19:18.113Z,46.14
2017-01-20T05:19:58.633Z,46.14
2017-01-20T05:20:39.067Z,46.33
2017-01-20T05:21:19.606Z,45.57
2017-01-20T05:22:00.043Z,45.67
2017-01-20T05:22:40.557Z,45.48
2017-01-20T05:23:21.048Z,45.48
2017-01-20T05:24:01.587Z,45.76
2017-01-20T05:24:42.036Z,45.67
2017-01-20T05:25:22.452Z,45.48
2017-01-20T05:26:02.951Z,46.04
2017-01-20T05:26:43.461Z,46.04
2017-01-20T05:27:23.960Z,46.69
2017-01-20T05:28:04.500Z,46.78
2017-01-20T05:28:44.936Z,46.21
2017-01-20T05:29:25.450Z,46.14
2017-01-20T05:30:05.968Z,46.42
2017-01-20T05:30:46.403Z,46.23
2017-01-20T05:31:26.922Z,45.76
2017-01-20T05:32:07.425Z,46.23
2017-01-20T05:32:47.882Z,45.76
2017-01-20T05:33:28.412Z,45.48
2017-01-20T05:34:09.770Z,45.67
2017-01-20T05:34:49.954Z,45.39
2017-01-20T05:35:30.672Z,45.27
2017-01-20T05:36:11.242Z,45.55
2017-01-20T05:36:51.673Z,45.76
2017-01-20T05:37:32.254Z,45.76
2017-01-20T05:38:13.266Z,45.67
2017-01-20T05:38:53.960Z,45.57
2017-01-20T05:39:34.573Z,45.67
2017-01-20T05:40:15.963Z,45.48
2017-01-20T05:40:55.900Z,45.36
2017-01-20T05:41:36.379Z,45.64
2017-01-20T05:42:17.507Z,45.64
2017-01-20T05:42:58.118Z,46.02
2017-01-20T05:43:38.625Z,46.02
2017-01-20T05:44:19.190Z,46.21
2017-01-20T05:44:59.692Z,46.5
2017-01-20T05:45:40.176Z,46.4
2017-01-20T05:46:20.682Z,46.21
2017-01-20T05:47:01.213Z,46.59
2017-01-20T05:47:41.729Z,46.59
2017-01-20T05:48:22.277Z,46.59
2017-01-20T05:49:03.285Z,46.12
2017-01-20T05:49:43.743Z,46.21
2017-01-20T05:50:24.226Z,45.83
2017-01-20T05:51:04.848Z,46.12
2017-01-20T05:51:45.286Z,45.64
2017-01-20T05:52:25.816Z,45.93
2017-01-20T05:53:06.278Z,45.83
2017-01-20T05:53:46.861Z,46.02
2017-01-20T05:54:27.458Z,45.55
2017-01-20T05:55:07.943Z,46.02
2017-01-20T05:55:48.407Z,45.93
2017-01-20T05:56:28.901Z,46.69
2017-01-20T05:57:09.457Z,46.69
2017-01-20T05:57:50.095Z,46.5
2017-01-20T05:58:30.653Z,46.21
2017-01-20T05:59:11.106Z,46.12
2017-01-20T05:59:51.609Z,45.64
2017-01-20T06:00:32.016Z,46.21
2017-01-20T06:01:12.495Z,46.12
2017-01-20T06:01:53.018Z,46.31
2017-01-20T06:02:33.439Z,46.14
2017-01-20T06:03:13.930Z,45.67
2017-01-20T06:03:54.471Z,45.45
2017-01-20T06:04:34.941Z,45.64
2017-01-20T06:05:15.541Z,45.36
2017-01-20T06:05:55.962Z,45.93
2017-01-20T06:06:36.499Z,45.67
2017-01-20T06:07:16.913Z,45.45
2017-01-20T06:07:57.385Z,46.12
2017-01-20T06:08:37.891Z,46.31
2017-01-20T06:09:18.602Z,46.21
2017-01-20T06:09:59.324Z,46.12
2017-01-20T06:10:39.807Z,46.4
2017-01-20T06:11:20.407Z,46.12
2017-01-20T06:12:00.948Z,46.21
2017-01-20T06:13:00.101Z,46.12
2017-01-20T06:13:40.468Z,46.69
2017-01-20T06:14:24.796Z,46.21
2017-01-20T06:15:28.603Z,46.69
2017-01-20T06:20:45.709Z,46.97
2017-01-20T06:41:30.174Z,50.3
2017-01-20T06:42:13.759Z,51.81
2017-01-20T06:42:54.436Z,51.72
2017-01-20T06:43:37.762Z,51.81
2017-01-20T06:44:19.666Z,52.48
2017-01-20T06:45:00.260Z,52
2017-01-20T06:45:40.674Z,51.15
2017-01-20T06:46:22.217Z,50.96
2017-01-20T06:47:02.850Z,50.87
2017-01-20T06:47:43.626Z,49.45
2017-01-20T06:48:23.992Z,48.13
2017-01-20T06:49:04.518Z,47.47
2017-01-20T06:49:46.239Z,46.52
2017-01-20T06:50:26.865Z,46.23
2017-01-20T06:51:08.604Z,46.8
2017-01-20T06:51:49.312Z,46.52
2017-01-20T06:52:29.577Z,46.23
2017-01-20T06:53:10.734Z,46.33
2017-01-20T06:53:51.303Z,47.56
2017-01-20T06:54:31.777Z,52.29
2017-01-20T06:55:15.345Z,51.72
2017-01-20T06:55:57.409Z,51.06
2017-01-20T06:56:40.999Z,56.45
2017-01-20T06:57:24.548Z,61.74
2017-01-20T06:58:07.318Z,60.52
2017-01-20T06:58:49.587Z,58.62
2017-01-20T06:59:30.169Z,53.8
2017-01-20T07:00:11.702Z,50.96
2017-01-20T07:00:53.865Z,49.35
2017-01-20T07:01:34.985Z,48.69
2017-01-20T07:02:16.670Z,50.11
2017-01-20T07:02:58.211Z,49.07
2017-01-20T07:03:39.936Z,48.32
2017-01-20T07:04:21.102Z,48.79
2017-01-20T07:05:01.593Z,51.15
2017-01-20T07:05:42.032Z,56.26
2017-01-20T07:06:22.558Z,58.06
2017-01-20T07:07:03.041Z,69.21
2017-01-20T07:07:43.472Z,70.63
2017-01-20T07:08:23.994Z,65.53
2017-01-20T07:09:04.429Z,60.99
2017-01-20T07:09:44.937Z,67.6
2017-01-20T07:10:25.437Z,77.34
2017-01-20T07:11:05.900Z,70.54
2017-01-20T07:11:46.390Z,62.31
2017-01-20T07:12:26.878Z,59.38
2017-01-20T07:13:07.436Z,57.11
2017-01-20T07:13:47.912Z,56.07
2017-01-20T07:14:28.392Z,56.73
2017-01-20T07:15:08.862Z,54.55
2017-01-20T07:15:49.391Z,53.14
2017-01-20T07:16:29.886Z,52.19
2017-01-20T07:17:10.386Z,53.89
2017-01-20T07:17:50.873Z,52.57
2017-01-20T07:18:31.337Z,52.1
2017-01-20T07:19:11.871Z,53.89
2017-01-20T07:19:52.344Z,51.34
2017-01-20T07:20:32.820Z,54.74
2017-01-20T07:21:13.378Z,54.84
2017-01-20T07:21:53.815Z,54.08
2017-01-20T07:22:34.347Z,53.42
2017-01-20T07:23:14.840Z,51.06
2017-01-20T07:23:55.705Z,52.29
2017-01-20T07:24:36.214Z,53.42
2017-01-20T07:25:16.765Z,54.55
2017-01-20T07:25:57.234Z,54.74
2017-01-20T07:26:37.717Z,55.79
2017-01-20T07:27:18.185Z,56.92
2017-01-20T07:27:58.672Z,56.54
2017-01-20T07:28:39.194Z,56.16
2017-01-20T07:29:19.676Z,52.29
2017-01-20T07:30:00.160Z,50.68
2017-01-20T07:30:40.657Z,48.97
2017-01-20T07:31:21.249Z,48.97
2017-01-20T07:32:01.644Z,48.88
2017-01-20T07:32:42.154Z,48.22
2017-01-20T07:33:22.653Z,47.66
2017-01-20T07:34:03.101Z,47.56
2017-01-20T07:34:43.625Z,47.25
2017-01-20T07:35:24.108Z,46.52
2017-01-20T07:36:04.604Z,48.32
2017-01-20T07:36:45.135Z,48.13
2017-01-20T07:37:25.668Z,49.43
2017-01-20T07:38:06.155Z,48.57
2017-01-20T07:38:46.589Z,51.53
2017-01-20T07:39:27.074Z,51.72
2017-01-20T07:40:07.569Z,50.68
2017-01-20T07:40:48.086Z,53.7
2017-01-20T07:41:28.611Z,53.61
2017-01-20T07:42:09.066Z,50.96
2017-01-20T07:42:49.481Z,52.86
2017-01-20T07:43:29.998Z,51.06
2017-01-20T07:44:10.545Z,55.03
2017-01-20T07:44:50.959Z,53.14
2017-01-20T07:45:31.509Z,50.4
2017-01-20T07:46:11.948Z,50.4
2017-01-20T07:46:52.536Z,52.19
2017-01-20T07:47:33.071Z,53.7
2017-01-20T07:48:13.720Z,57.68
2017-01-20T07:48:54.071Z,65.53
2017-01-20T07:49:34.590Z,61.55
2017-01-20T07:50:15.065Z,65.43
2017-01-20T07:50:55.569Z,63.07
2017-01-20T07:51:36.012Z,65.34
2017-01-20T07:52:16.617Z,61.83
2017-01-20T07:52:57.076Z,58.34
2017-01-20T07:53:37.577Z,67.6
2017-01-20T07:54:18.058Z,67.98
2017-01-20T07:54:58.545Z,60.7
2017-01-20T07:55:39.014Z,54.84
2017-01-20T07:56:19.542Z,51.34
2017-01-20T07:56:59.956Z,49.16
2017-01-20T07:57:40.505Z,50.59
2017-01-20T07:58:20.974Z,55.69
2017-01-20T08:02:06.823Z,64.96
2017-01-20T08:02:47.359Z,76.97
2017-01-20T08:03:27.818Z,85.99
2017-01-20T08:04:08.292Z,87.13
2017-01-20T08:04:48.786Z,81.79
2017-01-20T08:05:29.281Z,88.07
2017-01-20T08:06:09.788Z,90.44
2017-01-20T08:06:50.258Z,83.68
2017-01-20T08:07:30.750Z,72.33
2017-01-20T08:08:11.231Z,63.26
2017-01-20T08:08:51.688Z,57.2
2017-01-20T08:09:32.258Z,53.52
2017-01-20T08:10:12.769Z,50.87
2017-01-20T08:10:54.456Z,50.02
2017-01-20T08:11:34.927Z,54.74
2017-01-20T08:12:15.395Z,53.42
2017-01-20T08:12:55.891Z,52.38
2017-01-20T08:13:36.421Z,49.92
2017-01-20T08:14:16.889Z,49.54
2017-01-20T08:14:57.344Z,48.03
2017-01-20T08:15:37.857Z,47.75
2017-01-20T08:16:18.369Z,47.37
2017-01-20T08:16:58.910Z,47.66
2017-01-20T08:17:39.426Z,46.8
2017-01-20T08:18:19.870Z,46.52
2017-01-20T08:19:00.368Z,47.18
2017-01-20T08:19:40.827Z,59.76
2017-01-20T08:20:21.327Z,69.21
2017-01-20T08:21:01.778Z,70.82
2017-01-20T08:21:44.883Z,75.68
2017-01-20T08:22:25.388Z,73.79
2017-01-20T08:23:05.978Z,64.96
2017-01-20T08:23:46.426Z,60.8
2017-01-20T08:24:26.930Z,58.25
2017-01-20T08:25:07.390Z,54.46
2017-01-20T08:25:47.892Z,51.15
2017-01-20T08:26:28.386Z,49.16
2017-01-20T08:27:08.980Z,48.5
2017-01-20T08:27:49.475Z,52.67
2017-01-20T08:28:30.004Z,54.65
2017-01-20T08:29:10.431Z,52.48
2017-01-20T08:29:50.985Z,53.7
2017-01-20T08:30:31.513Z,50.78
2017-01-20T08:31:11.943Z,48.6
2017-01-20T08:31:52.442Z,47.56
2017-01-20T08:32:33.084Z,47.94
2017-01-20T08:33:13.538Z,47.56
2017-01-20T08:33:54.053Z,48.5
2017-01-20T08:34:34.582Z,53.23
2017-01-20T08:35:15.036Z,56.35
2017-01-20T08:35:55.577Z,54.46
2017-01-20T08:36:36.020Z,50.78
2017-01-20T08:37:16.578Z,48.22
2017-01-20T08:37:57.190Z,48.03
2017-01-20T08:38:37.767Z,48.03
2017-01-20T08:39:18.247Z,57.96
2017-01-20T08:39:58.762Z,78.33
2017-01-20T08:40:39.308Z,87.04
2017-01-20T08:41:19.728Z,84.2
2017-01-20T08:42:00.221Z,74.36
2017-01-20T08:42:40.830Z,69.06
2017-01-20T08:43:21.287Z,77.2
2017-01-20T08:44:01.810Z,69.63
2017-01-20T08:44:42.308Z,66.88
2017-01-20T08:45:22.857Z,62.44
2017-01-20T08:46:03.319Z,67.07
2017-01-20T08:46:43.952Z,67.64
2017-01-20T08:47:24.472Z,65.94
2017-01-20T08:48:05.006Z,65.75
2017-01-20T08:48:45.435Z,59.41
2017-01-20T08:49:25.907Z,62.25
2017-01-20T08:50:06.481Z,64.42
2017-01-20T08:50:46.897Z,66.13
2017-01-20T08:51:27.381Z,68.02
2017-01-20T08:52:07.894Z,68.96
2017-01-20T08:52:48.389Z,66.98
2017-01-20T08:53:28.939Z,60.36
2017-01-20T08:54:09.416Z,54.49
2017-01-20T08:54:49.925Z,51.75
2017-01-20T08:55:30.364Z,54.87
2017-01-20T08:56:10.860Z,68.68
2017-01-20T08:56:51.366Z,72.37
2017-01-20T08:57:31.875Z,66.31
2017-01-20T08:58:12.431Z,64.52
2017-01-20T08:58:52.919Z,59.98
2017-01-20T08:59:33.441Z,58.28
2017-01-20T09:00:13.960Z,53.74
2017-01-20T09:00:54.414Z,49.57
2017-01-20T09:01:35.450Z,47.49
2017-01-20T09:02:15.868Z,48.06
2017-01-20T09:02:56.361Z,52.31
2017-01-20T09:03:36.933Z,51.46
2017-01-20T09:04:17.344Z,50.8
2017-01-20T09:04:57.878Z,50.9
2017-01-20T09:05:38.426Z,48.91
2017-01-20T09:06:18.918Z,47.77
2017-01-20T09:06:59.437Z,47.68
2017-01-20T09:07:39.873Z,50.04
2017-01-20T09:08:20.344Z,53.64
2017-01-20T09:09:00.969Z,54.77
2017-01-20T09:09:41.365Z,51.37
2017-01-20T09:10:21.868Z,50.8
2017-01-20T09:11:02.355Z,49.57
2017-01-20T09:11:42.837Z,47.58
2017-01-20T09:12:23.290Z,46.36
2017-01-20T09:13:03.968Z,47.96
2017-01-20T09:13:44.423Z,47.28
2017-01-20T09:14:24.894Z,50.9
2017-01-20T09:15:05.432Z,50.99